Lafayette Square, Louisiana
Current Conditions -  °F | °C
As of 11:55 PM on Saturday 25 Oct 2014 (Local Time) from KVSH Reporting Station
Clear Clear  
Wind Chill: 72°   Ceiling: Unl
Heat Index: 72°   Visibility: 10mi
Dew Point: 57°   Wind: 0mph
Humidity: 60%   Direction: NA
Pressure: 30.08"   Gusts: NA
Location:  29.937°N, 90.0707°W
Report Text: KVSH 260455Z AUTO 00000KT 10SM CLR 22/14 A3008 RMK AO1
Loading
Personal Weather Stations






























Interactive Weather Map
Tropical Storm Tracking
New forecast layout! Learn more

10-Day Weather Forecast

Advertisements
Track Severe Weather on mobile